Time;durP1;ratioP1;P1;durP2;ratioP2;P2;SDS_P1;SDS_P2;PMS_P1;PMS_P2;Temp;Humidity;BMP_temperature;BMP_pressure;BME280_temperature;BME280_humidity;BME280_pressure;Samples;Min_cycle;Max_cycle;Signal;HPM_P1;HPM_P2
2023/04/25 00:00:58;;;;;;;5.78;2.42;;;;;;;;;;5052198;28;20040;-77
2023/04/25 00:03:24;;;;;;;3.78;1.60;;;;;;;;;;5033958;28;20033;-76
2023/04/25 00:05:51;;;;;;;5.07;2.20;;;;;;;;;;5034526;28;20027;-76
2023/04/25 00:08:17;;;;;;;2.50;1.80;;;;;;;;;;5035765;28;20071;-75
2023/04/25 00:10:42;;;;;;;3.95;2.30;;;;;;;;;;5036238;28;20497;-77
2023/04/25 00:13:09;;;;;;;2.20;1.90;;;;;;;;;;5040915;28;20025;-76
2023/04/25 00:15:35;;;;;;;4.45;2.10;;;;;;;;;;5047432;28;20021;-75
2023/04/25 00:18:01;;;;;;;2.17;1.92;;;;;;;;;;5050463;28;20036;-75
2023/04/25 00:20:26;;;;;;;3.58;2.28;;;;;;;;;;5066911;28;20021;-75
2023/04/25 00:22:53;;;;;;;4.50;2.42;;;;;;;;;;5058100;28;20350;-75
2023/04/25 00:25:19;;;;;;;3.92;2.40;;;;;;;;;;5051732;28;20100;-75
2023/04/25 00:27:44;;;;;;;5.35;2.63;;;;;;;;;;5034072;28;20496;-76
2023/04/25 00:30:10;;;;;;;3.30;2.33;;;;;;;;;;5034438;28;20060;-76
2023/04/25 00:32:36;;;;;;;4.50;2.47;;;;;;;;;;5035594;28;20115;-76
2023/04/25 00:35:02;;;;;;;3.17;2.03;;;;;;;;;;5035460;28;20021;-76
2023/04/25 00:37:28;;;;;;;2.88;1.85;;;;;;;;;;5053899;28;20071;-76
2023/04/25 00:39:55;;;;;;;5.05;2.50;;;;;;;;;;5055237;28;20025;-76
2023/04/25 00:42:21;;;;;;;2.67;2.17;;;;;;;;;;5038554;28;20102;-78
2023/04/25 00:44:47;;;;;;;5.47;2.05;;;;;;;;;;5062276;28;20025;-76
2023/04/25 00:47:13;;;;;;;4.22;2.58;;;;;;;;;;5061159;28;20048;-76
2023/04/25 00:49:38;;;;;;;5.03;1.88;;;;;;;;;;5036013;28;20233;-76
2023/04/25 00:52:04;;;;;;;4.43;2.50;;;;;;;;;;5033085;28;20078;-76
2023/04/25 00:54:30;;;;;;;5.38;2.58;;;;;;;;;;5032683;28;20024;-76
2023/04/25 00:56:56;;;;;;;2.47;2.03;;;;;;;;;;5032617;28;20020;-76
2023/04/25 00:59:22;;;;;;;3.83;2.33;;;;;;;;;;5051066;28;20036;-76
2023/04/25 01:01:48;;;;;;;4.05;2.83;;;;;;;;;;5033101;28;20032;-75
2023/04/25 01:04:13;;;;;;;3.30;2.17;;;;;;;;;;5032585;28;20429;-75
2023/04/25 01:06:40;;;;;;;4.40;2.67;;;;;;;;;;5050844;28;20355;-75
2023/04/25 01:09:06;;;;;;;3.47;2.85;;;;;;;;;;5050220;28;20133;-75
2023/04/25 01:11:31;;;;;;;8.57;2.83;;;;;;;;;;5032954;28;20128;-75
2023/04/25 01:13:57;;;;;;;4.65;2.95;;;;;;;;;;5032659;28;20240;-75
2023/04/25 01:16:26;;;;;;;5.05;3.03;;;;;;;;;;5050087;28;20044;-76
2023/04/25 01:18:52;;;;;;;4.47;2.95;;;;;;;;;;5032819;28;20083;-76
2023/04/25 01:21:18;;;;;;;5.53;3.00;;;;;;;;;;5050799;28;20033;-76
2023/04/25 01:23:43;;;;;;;4.33;3.20;;;;;;;;;;5032825;28;20056;-76
2023/04/25 01:26:10;;;;;;;3.83;2.90;;;;;;;;;;5050488;28;20056;-75
2023/04/25 01:28:37;;;;;;;6.33;3.13;;;;;;;;;;5051102;28;20515;-76
2023/04/25 01:31:03;;;;;;;4.77;3.03;;;;;;;;;;5030377;28;20478;-75
2023/04/25 01:33:29;;;;;;;6.55;2.83;;;;;;;;;;5031489;28;20037;-75
2023/04/25 01:35:55;;;;;;;7.73;3.03;;;;;;;;;;5033173;28;20044;-75
2023/04/25 01:38:21;;;;;;;6.10;3.37;;;;;;;;;;5039335;28;20048;-75
2023/04/25 01:40:50;;;;;;;5.30;3.38;;;;;;;;;;5041609;28;20025;-75
2023/04/25 01:43:16;;;;;;;8.43;3.05;;;;;;;;;;5031124;28;20033;-75
2023/04/25 01:45:42;;;;;;;6.38;3.00;;;;;;;;;;5029105;28;20036;-75
2023/04/25 01:48:13;;;;;;;7.47;4.03;;;;;;;;;;5028984;28;20029;-75
2023/04/25 01:50:40;;;;;;;5.10;2.70;;;;;;;;;;5030590;28;20026;-75
2023/04/25 01:53:06;;;;;;;7.20;3.40;;;;;;;;;;5028949;28;20026;-75
2023/04/25 01:55:31;;;;;;;6.63;3.47;;;;;;;;;;5028527;28;20024;-74
2023/04/25 01:57:58;;;;;;;5.43;4.10;;;;;;;;;;5028734;28;20163;-75
2023/04/25 02:00:23;;;;;;;5.27;3.27;;;;;;;;;;5029741;28;20028;-75
2023/04/25 02:02:50;;;;;;;6.00;3.37;;;;;;;;;;5030037;28;20037;-75
2023/04/25 02:05:16;;;;;;;5.23;3.23;;;;;;;;;;5028517;28;20048;-75
2023/04/25 02:07:42;;;;;;;5.50;3.43;;;;;;;;;;5028610;28;20029;-76
2023/04/25 02:10:08;;;;;;;5.47;3.70;;;;;;;;;;5029137;28;20040;-76
2023/04/25 02:12:33;;;;;;;4.97;3.43;;;;;;;;;;5030749;28;20079;-74
2023/04/25 02:14:59;;;;;;;6.83;3.60;;;;;;;;;;5030781;28;20417;-75
2023/04/25 02:17:26;;;;;;;8.13;4.37;;;;;;;;;;5029619;28;20108;-75
2023/04/25 02:19:51;;;;;;;5.30;3.10;;;;;;;;;;5031254;28;20051;-75
2023/04/25 02:22:17;;;;;;;5.87;3.40;;;;;;;;;;5031143;28;20763;-75
2023/04/25 02:24:42;;;;;;;4.93;3.43;;;;;;;;;;5029098;28;20028;-74
2023/04/25 02:27:08;;;;;;;5.57;3.43;;;;;;;;;;5028795;28;20406;-75
2023/04/25 02:29:33;;;;;;;6.57;3.50;;;;;;;;;;5028699;28;20049;-76
2023/04/25 02:31:59;;;;;;;7.53;3.40;;;;;;;;;;5047495;28;20060;-76
2023/04/25 02:34:24;;;;;;;7.97;3.67;;;;;;;;;;5049344;28;20013;-75
2023/04/25 02:36:53;;;;;;;5.63;3.70;;;;;;;;;;5049642;28;20036;-75
2023/04/25 02:39:18;;;;;;;8.53;4.50;;;;;;;;;;5049670;28;20036;-76
2023/04/25 02:41:44;;;;;;;8.03;4.00;;;;;;;;;;5049704;28;20025;-76
2023/04/25 02:44:09;;;;;;;10.87;4.33;;;;;;;;;;5049694;28;20025;-75
2023/04/25 02:46:35;;;;;;;5.87;3.73;;;;;;;;;;5050045;28;20021;-75
2023/04/25 02:49:00;;;;;;;5.30;3.70;;;;;;;;;;5035062;28;20025;-76
2023/04/25 02:51:26;;;;;;;6.03;3.57;;;;;;;;;;5055993;28;20044;-76
2023/04/25 02:53:51;;;;;;;6.80;3.80;;;;;;;;;;5032170;28;20377;-76
2023/04/25 02:56:17;;;;;;;7.57;3.70;;;;;;;;;;5031247;28;20028;-76
2023/04/25 02:58:42;;;;;;;10.73;4.27;;;;;;;;;;5049221;28;20025;-76
2023/04/25 03:01:08;;;;;;;7.83;3.97;;;;;;;;;;5031673;28;20522;-76
2023/04/25 03:03:33;;;;;;;7.10;3.67;;;;;;;;;;5031614;28;20025;-76
2023/04/25 03:05:59;;;;;;;9.00;4.07;;;;;;;;;;5031803;28;20386;-76
2023/04/25 03:08:25;;;;;;;6.70;3.57;;;;;;;;;;5050188;28;20037;-76
2023/04/25 03:10:51;;;;;;;6.53;3.93;;;;;;;;;;5034906;28;20186;-75
2023/04/25 03:13:17;;;;;;;10.53;4.10;;;;;;;;;;5034702;28;20032;-77
2023/04/25 03:15:43;;;;;;;9.57;4.37;;;;;;;;;;5034296;28;20021;-76
2023/04/25 03:18:08;;;;;;;10.77;4.90;;;;;;;;;;5052965;28;20462;-76
2023/04/25 03:20:34;;;;;;;6.60;4.10;;;;;;;;;;5052985;28;20021;-75
2023/04/25 03:22:59;;;;;;;8.93;4.50;;;;;;;;;;5053106;28;20036;-76
2023/04/25 03:25:25;;;;;;;5.10;3.80;;;;;;;;;;5034720;28;20021;-76
2023/04/25 03:27:50;;;;;;;8.30;3.83;;;;;;;;;;5035022;28;20410;-75
2023/04/25 03:30:16;;;;;;;7.30;4.20;;;;;;;;;;5052520;28;20051;-76
2023/04/25 03:32:41;;;;;;;9.80;4.50;;;;;;;;;;5051825;28;20078;-76
2023/04/25 03:35:07;;;;;;;8.60;4.50;;;;;;;;;;5053661;28;20038;-76
2023/04/25 03:37:34;;;;;;;6.67;4.50;;;;;;;;;;5053079;28;20098;-75
2023/04/25 03:39:59;;;;;;;8.43;4.17;;;;;;;;;;5035418;28;20028;-76
2023/04/25 03:42:25;;;;;;;9.60;4.80;;;;;;;;;;5035733;28;20025;-76
2023/04/25 03:44:51;;;;;;;9.10;4.23;;;;;;;;;;5035739;28;20031;-76
2023/04/25 03:47:16;;;;;;;9.30;5.17;;;;;;;;;;5052700;28;20029;-75
2023/04/25 03:49:42;;;;;;;7.67;4.23;;;;;;;;;;5052084;28;20025;-76
2023/04/25 03:52:08;;;;;;;7.47;4.47;;;;;;;;;;5052645;28;20780;-75
2023/04/25 03:54:33;;;;;;;5.63;3.87;;;;;;;;;;5034093;28;20034;-76
2023/04/25 03:56:59;;;;;;;9.97;4.33;;;;;;;;;;5034458;28;20063;-76
2023/04/25 03:59:25;;;;;;;7.43;4.30;;;;;;;;;;5034157;28;20048;-76
2023/04/25 04:01:51;;;;;;;6.63;4.90;;;;;;;;;;5052887;28;20099;-76
2023/04/25 04:04:17;;;;;;;9.87;4.80;;;;;;;;;;5033715;28;20414;-76
2023/04/25 04:06:42;;;;;;;9.90;5.10;;;;;;;;;;5034183;28;20024;-76
2023/04/25 04:09:10;;;;;;;7.80;4.43;;;;;;;;;;5052066;28;20017;-76
2023/04/25 04:11:38;;;;;;;7.40;4.40;;;;;;;;;;5033483;28;20033;-75
2023/04/25 04:14:07;;;;;;;9.47;4.90;;;;;;;;;;5033722;28;20803;-76
2023/04/25 04:16:33;;;;;;;6.20;4.33;;;;;;;;;;5033744;28;20036;-76
2023/04/25 04:18:58;;;;;;;10.93;5.47;;;;;;;;;;5051186;28;20151;-77
2023/04/25 04:21:27;;;;;;;9.50;4.60;;;;;;;;;;5052544;28;20036;-77
2023/04/25 04:23:54;;;;;;;7.80;5.20;;;;;;;;;;5035729;28;20051;-77
2023/04/25 04:26:23;;;;;;;8.93;4.60;;;;;;;;;;5037535;28;20108;-75
2023/04/25 04:28:50;;;;;;;5.97;4.27;;;;;;;;;;5034122;28;20070;-75
2023/04/25 04:31:19;;;;;;;13.97;5.23;;;;;;;;;;5033378;28;20045;-76
2023/04/25 04:33:45;;;;;;;9.10;5.17;;;;;;;;;;5017230;28;20033;-76
2023/04/25 04:36:11;;;;;;;8.77;4.77;;;;;;;;;;5033650;28;20029;-76
2023/04/25 04:38:37;;;;;;;9.47;4.40;;;;;;;;;;5033420;28;20131;-76
2023/04/25 04:41:03;;;;;;;8.57;4.90;;;;;;;;;;5034129;28;20128;-76
2023/04/25 04:43:29;;;;;;;10.03;5.00;;;;;;;;;;5033479;28;20025;-77
2023/04/25 04:45:58;;;;;;;18.57;5.40;;;;;;;;;;5051926;28;20033;-75
2023/04/25 04:48:24;;;;;;;11.30;5.90;;;;;;;;;;5034206;28;20036;-75
2023/04/25 04:50:50;;;;;;;10.17;5.33;;;;;;;;;;5034790;28;20021;-76
2023/04/25 04:53:15;;;;;;;8.93;5.00;;;;;;;;;;5052835;28;20446;-75
2023/04/25 04:55:41;;;;;;;8.73;4.87;;;;;;;;;;5051075;28;20029;-76
2023/04/25 04:58:07;;;;;;;10.98;5.07;;;;;;;;;;5051302;28;20677;-77
2023/04/25 05:00:33;;;;;;;9.30;5.10;;;;;;;;;;5033195;28;20531;-76
2023/04/25 05:02:58;;;;;;;9.30;5.47;;;;;;;;;;5033278;28;20028;-77
2023/04/25 05:05:24;;;;;;;8.53;5.57;;;;;;;;;;5033896;28;20123;-77
2023/04/25 05:07:50;;;;;;;18.23;6.63;;;;;;;;;;5033798;28;20039;-78
2023/04/25 05:10:17;;;;;;;10.90;6.60;;;;;;;;;;5033867;28;20020;-77
2023/04/25 05:12:43;;;;;;;14.43;5.87;;;;;;;;;;5033694;28;20028;-78
2023/04/25 05:15:09;;;;;;;13.60;6.67;;;;;;;;;;5052779;28;20389;-76
2023/04/25 05:17:34;;;;;;;9.55;6.38;;;;;;;;;;5040332;28;20021;-76
2023/04/25 05:20:00;;;;;;;9.50;5.68;;;;;;;;;;5059014;28;20055;-76
2023/04/25 05:22:26;;;;;;;11.33;5.90;;;;;;;;;;5040406;28;20106;-74
2023/04/25 05:24:51;;;;;;;8.55;5.47;;;;;;;;;;5037597;28;20346;-75
2023/04/25 05:27:19;;;;;;;12.05;6.40;;;;;;;;;;5040446;28;20032;-75
2023/04/25 05:29:44;;;;;;;13.88;5.97;;;;;;;;;;5038249;28;20055;-75
2023/04/25 05:32:10;;;;;;;10.07;5.35;;;;;;;;;;5040822;28;20057;-75
2023/04/25 05:34:36;;;;;;;9.98;4.97;;;;;;;;;;5037104;28;20101;-76
2023/04/25 05:37:02;;;;;;;7.40;4.97;;;;;;;;;;5036902;28;20064;-74
2023/04/25 05:39:28;;;;;;;9.07;5.63;;;;;;;;;;5012954;28;20076;-77
2023/04/25 05:41:55;;;;;;;9.40;5.30;;;;;;;;;;5031734;28;20029;-76
2023/04/25 05:44:20;;;;;;;8.98;4.90;;;;;;;;;;5030273;28;20038;-77
2023/04/25 05:46:47;;;;;;;12.98;5.88;;;;;;;;;;5029640;28;20444;-75
2023/04/25 05:49:12;;;;;;;7.95;4.88;;;;;;;;;;5031955;28;20051;-75
2023/04/25 05:51:38;;;;;;;8.82;5.20;;;;;;;;;;5028521;28;20030;-76
2023/04/25 05:54:04;;;;;;;10.55;5.70;;;;;;;;;;5042953;28;20041;-75
2023/04/25 05:56:29;;;;;;;8.43;5.72;;;;;;;;;;5030740;28;20039;-76
2023/04/25 05:58:55;;;;;;;10.43;5.45;;;;;;;;;;5025306;28;20109;-72
2023/04/25 06:01:23;;;;;;;14.02;5.70;;;;;;;;;;5021732;28;20067;-77
2023/04/25 06:03:49;;;;;;;11.43;5.65;;;;;;;;;;5015678;28;20045;-76
2023/04/25 06:06:14;;;;;;;9.50;5.63;;;;;;;;;;5039911;28;20573;-73
2023/04/25 06:08:41;;;;;;;13.77;5.53;;;;;;;;;;5015659;28;20052;-74
2023/04/25 06:11:07;;;;;;;8.20;5.60;;;;;;;;;;5025967;28;20389;-73
2023/04/25 06:13:33;;;;;;;10.80;5.60;;;;;;;;;;5015517;28;20574;-73
2023/04/25 06:15:58;;;;;;;9.25;5.45;;;;;;;;;;5017839;28;20022;-71
2023/04/25 06:18:23;;;;;;;10.07;6.50;;;;;;;;;;5024287;28;20029;-73
2023/04/25 06:20:52;;;;;;;47.45;10.63;;;;;;;;;;5020342;28;20041;-78
2023/04/25 06:23:17;;;;;;;10.65;5.53;;;;;;;;;;5017213;28;20029;-76
2023/04/25 06:25:43;;;;;;;11.23;5.50;;;;;;;;;;5013974;28;20036;-77
2023/04/25 06:28:09;;;;;;;9.10;5.25;;;;;;;;;;5023803;28;20023;-74
2023/04/25 06:30:34;;;;;;;14.00;6.05;;;;;;;;;;5016956;28;20371;-76
2023/04/25 06:33:00;;;;;;;8.35;4.95;;;;;;;;;;5020361;28;20041;-76
2023/04/25 06:35:25;;;;;;;7.40;4.97;;;;;;;;;;5019490;28;20034;-76
2023/04/25 06:37:51;;;;;;;12.00;4.95;;;;;;;;;;5024744;28;20037;-77
2023/04/25 06:40:17;;;;;;;8.73;5.20;;;;;;;;;;5027678;28;20810;-77
2023/04/25 06:42:43;;;;;;;7.85;4.90;;;;;;;;;;5017416;28;20052;-75
2023/04/25 06:45:09;;;;;;;9.30;5.50;;;;;;;;;;5022485;28;20029;-75
2023/04/25 06:47:36;;;;;;;7.30;4.80;;;;;;;;;;5028296;28;20044;-74
2023/04/25 06:50:01;;;;;;;12.75;5.38;;;;;;;;;;5029500;28;21010;-75
2023/04/25 06:52:27;;;;;;;7.88;5.20;;;;;;;;;;5024749;28;20024;-75
2023/04/25 06:54:52;;;;;;;10.90;5.88;;;;;;;;;;5020857;28;20504;-76
2023/04/25 06:57:19;;;;;;;8.02;5.45;;;;;;;;;;5022217;28;20029;-74
2023/04/25 06:59:45;;;;;;;11.70;6.97;;;;;;;;;;5022541;28;20021;-75
2023/04/25 07:02:10;;;;;;;10.23;4.85;;;;;;;;;;5021478;28;20048;-75
2023/04/25 07:04:36;;;;;;;10.10;6.25;;;;;;;;;;5031869;28;20168;-75
2023/04/25 07:07:03;;;;;;;11.90;5.75;;;;;;;;;;5028340;28;20064;-75
2023/04/25 07:09:29;;;;;;;6.50;4.93;;;;;;;;;;5024844;28;20548;-76
2023/04/25 07:11:56;;;;;;;9.40;4.57;;;;;;;;;;5009751;28;20039;-74
2023/04/25 07:14:22;;;;;;;9.77;5.57;;;;;;;;;;5027468;28;20029;-75
2023/04/25 07:16:47;;;;;;;8.77;5.00;;;;;;;;;;5022879;28;20752;-75
2023/04/25 07:19:14;;;;;;;8.38;4.70;;;;;;;;;;5027475;28;20024;-74
2023/04/25 07:21:42;;;;;;;8.73;5.60;;;;;;;;;;5029739;28;20028;-76
2023/04/25 07:24:07;;;;;;;7.40;4.57;;;;;;;;;;5025792;28;20136;-75
2023/04/25 07:26:33;;;;;;;9.07;5.47;;;;;;;;;;5026372;28;20505;-76
2023/04/25 07:28:58;;;;;;;7.70;4.38;;;;;;;;;;5027075;28;20025;-76
2023/04/25 07:31:24;;;;;;;6.05;4.43;;;;;;;;;;5027766;28;20076;-76
2023/04/25 07:33:50;;;;;;;13.25;9.43;;;;;;;;;;5026299;28;20037;-75
2023/04/25 07:36:15;;;;;;;7.00;4.55;;;;;;;;;;5029081;28;20397;-75
2023/04/25 07:38:41;;;;;;;8.30;4.45;;;;;;;;;;5028746;28;20029;-75
2023/04/25 07:41:06;;;;;;;6.60;4.47;;;;;;;;;;5026758;28;20026;-74
2023/04/25 07:43:32;;;;;;;9.02;4.32;;;;;;;;;;5016469;28;20110;-76
2023/04/25 07:45:58;;;;;;;8.95;4.78;;;;;;;;;;5023627;28;20025;-75
2023/04/25 07:48:23;;;;;;;8.70;5.22;;;;;;;;;;5023777;28;20057;-75
2023/04/25 07:50:50;;;;;;;7.72;4.68;;;;;;;;;;5009720;28;20118;-75
2023/04/25 07:53:17;;;;;;;5.78;4.50;;;;;;;;;;5029778;28;20033;-75
2023/04/25 07:55:43;;;;;;;13.02;5.28;;;;;;;;;;5026877;28;20388;-75
2023/04/25 07:58:09;;;;;;;7.40;4.95;;;;;;;;;;5021095;28;20113;-75
2023/04/25 08:00:36;;;;;;;6.78;5.15;;;;;;;;;;5020706;28;20474;-75
2023/04/25 08:03:02;;;;;;;11.52;5.53;;;;;;;;;;5023870;28;20469;-73
2023/04/25 08:05:28;;;;;;;9.70;5.72;;;;;;;;;;5026912;28;20022;-77
2023/04/25 08:07:53;;;;;;;6.97;4.82;;;;;;;;;;5022892;28;20021;-75
2023/04/25 08:10:19;;;;;;;7.43;4.82;;;;;;;;;;5022667;28;20483;-74
2023/04/25 08:12:46;;;;;;;6.35;3.65;;;;;;;;;;5030525;28;20025;-74
2023/04/25 08:15:13;;;;;;;6.32;4.20;;;;;;;;;;5019888;28;20029;-75
2023/04/25 08:17:39;;;;;;;5.13;3.88;;;;;;;;;;5029104;28;20021;-74
2023/04/25 08:20:05;;;;;;;5.57;3.97;;;;;;;;;;5024147;28;20491;-76
2023/04/25 08:22:31;;;;;;;6.45;4.40;;;;;;;;;;5024494;28;20120;-74
2023/04/25 08:24:57;;;;;;;5.10;4.10;;;;;;;;;;5021678;28;20104;-74
2023/04/25 08:27:23;;;;;;;5.63;3.67;;;;;;;;;;5018093;28;20108;-75
2023/04/25 08:29:50;;;;;;;4.82;4.20;;;;;;;;;;5020736;28;20071;-76
2023/04/25 08:32:15;;;;;;;5.00;4.13;;;;;;;;;;5042924;28;20530;-76
2023/04/25 08:34:42;;;;;;;5.28;3.78;;;;;;;;;;5028910;28;20032;-75
2023/04/25 08:37:09;;;;;;;5.18;4.13;;;;;;;;;;5041896;28;20024;-75
2023/04/25 08:39:36;;;;;;;6.03;4.65;;;;;;;;;;5043579;28;20399;-76
2023/04/25 08:42:07;;;;;;;4.30;3.78;;;;;;;;;;5040508;28;20595;-76
2023/04/25 08:44:36;;;;;;;4.75;3.83;;;;;;;;;;5015607;28;20029;-76
2023/04/25 08:47:07;;;;;;;6.78;4.20;;;;;;;;;;5014630;28;20036;-74
2023/04/25 08:49:33;;;;;;;5.78;3.55;;;;;;;;;;5039622;28;20202;-75
2023/04/25 08:52:03;;;;;;;4.63;3.53;;;;;;;;;;5036704;28;20095;-75
2023/04/25 08:54:31;;;;;;;7.53;3.97;;;;;;;;;;5039421;28;20024;-75
2023/04/25 08:57:01;;;;;;;6.00;3.40;;;;;;;;;;5023222;28;20029;-75
2023/04/25 08:59:31;;;;;;;5.15;3.40;;;;;;;;;;5026982;28;20066;-76
2023/04/25 09:01:57;;;;;;;8.30;3.67;;;;;;;;;;5041128;28;20355;-75
2023/04/25 09:04:24;;;;;;;3.63;3.28;;;;;;;;;;5024974;28;20385;-75
2023/04/25 09:06:49;;;;;;;6.03;4.38;;;;;;;;;;5018721;28;20096;-74
2023/04/25 09:09:15;;;;;;;4.22;3.83;;;;;;;;;;5024474;28;20802;-74
2023/04/25 09:11:41;;;;;;;5.07;3.55;;;;;;;;;;5041657;28;20063;-74
2023/04/25 09:14:24;;;;;;;8.25;4.20;;;;;;;;;;5020431;28;20128;-74
2023/04/25 09:16:59;;;;;;;6.45;3.63;;;;;;;;;;5016366;28;20035;-74
2023/04/25 09:19:28;;;;;;;3.40;3.10;;;;;;;;;;5025330;28;20037;-75
2023/04/25 09:21:55;;;;;;;4.68;3.55;;;;;;;;;;5041044;28;20033;-76
2023/04/25 09:24:49;;;;;;;5.70;3.60;;;;;;;;;;5025185;28;20036;-74
2023/04/25 09:27:26;;;;;;;5.03;3.70;;;;;;;;;;5045904;28;20093;-75
2023/04/25 09:30:04;;;;;;;6.53;3.60;;;;;;;;;;5029783;28;20045;-75
2023/04/25 09:32:30;;;;;;;11.38;3.88;;;;;;;;;;5043297;28;20071;-75
2023/04/25 09:34:57;;;;;;;10.20;6.60;;;;;;;;;;5026653;28;20237;-75
2023/04/25 09:37:29;;;;;;;4.88;3.80;;;;;;;;;;5025604;28;20036;-76
2023/04/25 09:39:55;;;;;;;;;;;;;;;;;;5018215;28;20037;-76
2023/04/25 09:42:27;;;;;;;8.93;4.68;;;;;;;;;;5024582;28;19917;-76
2023/04/25 09:44:55;;;;;;;13.25;5.07;;;;;;;;;;5032690;28;20029;-75
2023/04/25 09:47:23;;;;;;;8.75;5.40;;;;;;;;;;5006121;28;20633;-75
2023/04/25 09:49:49;;;;;;;9.43;4.63;;;;;;;;;;5037563;28;20037;-76
2023/04/25 09:52:22;;;;;;;9.15;4.43;;;;;;;;;;5037383;28;21678;-75
2023/04/25 09:54:51;;;;;;;7.63;4.43;;;;;;;;;;5017532;28;20486;-77
2023/04/25 09:57:22;;;;;;;7.80;4.75;;;;;;;;;;5042185;28;20051;-76
2023/04/25 09:59:53;;;;;;;8.27;4.72;;;;;;;;;;5027426;28;20028;-76
2023/04/25 10:02:21;;;;;;;5.32;4.15;;;;;;;;;;5034544;28;20341;-76
2023/04/25 10:04:54;;;;;;;9.77;5.28;;;;;;;;;;5045407;28;20122;-75
2023/04/25 10:07:25;;;;;;;9.85;5.20;;;;;;;;;;5042833;28;20077;-75
2023/04/25 10:10:03;;;;;;;12.57;5.50;;;;;;;;;;5033053;28;20550;-76
2023/04/25 10:12:29;;;;;;;10.32;5.38;;;;;;;;;;5031318;28;20036;-74
2023/04/25 10:14:55;;;;;;;13.43;5.93;;;;;;;;;;5038996;28;20025;-75
2023/04/25 10:17:21;;;;;;;10.98;5.47;;;;;;;;;;5031833;28;20055;-74
2023/04/25 10:19:54;;;;;;;7.90;4.93;;;;;;;;;;5034972;28;20428;-77
2023/04/25 10:22:30;;;;;;;8.50;5.35;;;;;;;;;;5034956;28;20061;-77
2023/04/25 10:24:57;;;;;;;6.10;4.75;;;;;;;;;;5033213;28;20049;-76
2023/04/25 10:27:22;;;;;;;6.88;3.80;;;;;;;;;;5041115;28;20033;-77
2023/04/25 10:30:08;;;;;;;7.95;5.55;;;;;;;;;;5029822;28;20515;-76
2023/04/25 10:32:35;;;;;;;9.48;4.07;;;;;;;;;;5003561;28;20446;-76
2023/04/25 10:35:15;;;;;;;5.22;3.65;;;;;;;;;;5002400;28;20366;-76
2023/04/25 10:37:57;;;;;;;6.00;3.58;;;;;;;;;;5005088;28;20465;-76
2023/04/25 10:40:23;;;;;;;4.50;2.88;;;;;;;;;;5002212;28;20117;-75
2023/04/25 10:42:49;;;;;;;4.95;3.28;;;;;;;;;;5005807;28;20118;-76
2023/04/25 10:45:14;;;;;;;4.65;3.22;;;;;;;;;;4995773;28;20037;-76
2023/04/25 10:47:46;;;;;;;4.88;3.15;;;;;;;;;;5002493;28;20045;-76
2023/04/25 10:50:15;;;;;;;6.80;3.63;;;;;;;;;;4998361;28;20076;-76
2023/04/25 10:52:41;;;;;;;5.50;3.80;;;;;;;;;;4977757;28;20046;-76
2023/04/25 10:55:07;;;;;;;8.45;4.07;;;;;;;;;;5000103;28;20022;-78
2023/04/25 10:57:38;;;;;;;6.65;3.35;;;;;;;;;;5016176;28;20057;-75
2023/04/25 11:00:05;;;;;;;6.00;3.35;;;;;;;;;;4992928;28;20114;-76
2023/04/25 11:02:30;;;;;;;5.25;3.30;;;;;;;;;;5003860;28;20044;-75
2023/04/25 11:04:56;;;;;;;5.07;3.30;;;;;;;;;;5003116;28;20117;-74
2023/04/25 11:07:34;;;;;;;4.97;4.00;;;;;;;;;;5002629;28;20058;-75
2023/04/25 11:10:04;;;;;;;5.90;3.72;;;;;;;;;;5001854;28;20164;-75
2023/04/25 11:12:31;;;;;;;8.45;4.47;;;;;;;;;;5004633;28;20025;-76
2023/04/25 11:15:03;;;;;;;8.35;4.72;;;;;;;;;;5002066;28;20022;-75
2023/04/25 11:17:29;;;;;;;9.95;4.60;;;;;;;;;;5004528;28;20146;-75
2023/04/25 11:19:56;;;;;;;6.63;4.55;;;;;;;;;;5002587;28;20037;-76
2023/04/25 11:22:23;;;;;;;10.10;4.82;;;;;;;;;;5001440;28;20026;-76
2023/04/25 11:24:50;;;;;;;8.60;5.43;;;;;;;;;;4998802;28;20025;-75
2023/04/25 11:27:16;;;;;;;7.97;4.43;;;;;;;;;;5002153;28;20034;-75
2023/04/25 11:29:42;;;;;;;5.25;4.13;;;;;;;;;;5002781;28;20037;-75
2023/04/25 11:32:08;;;;;;;10.00;5.10;;;;;;;;;;5016736;28;20136;-77
2023/04/25 11:34:34;;;;;;;9.02;4.88;;;;;;;;;;5020615;28;20485;-77
2023/04/25 11:37:03;;;;;;;6.05;4.55;;;;;;;;;;5017483;28;20064;-74
2023/04/25 11:39:30;;;;;;;8.30;4.15;;;;;;;;;;5024312;28;20195;-74
2023/04/25 11:41:56;;;;;;;6.60;4.78;;;;;;;;;;5019646;28;20593;-75
2023/04/25 11:44:22;;;;;;;5.50;3.90;;;;;;;;;;5020709;28;20032;-76
2023/04/25 11:46:48;;;;;;;4.47;2.85;;;;;;;;;;5021495;28;20485;-75
2023/04/25 11:49:15;;;;;;;4.20;3.10;;;;;;;;;;5019133;28;20034;-76
2023/04/25 11:51:41;;;;;;;3.88;2.92;;;;;;;;;;5021897;28;20563;-75
2023/04/25 11:54:07;;;;;;;4.18;2.72;;;;;;;;;;5019618;28;20739;-76
2023/04/25 11:56:34;;;;;;;6.63;3.15;;;;;;;;;;5023083;28;20188;-76
2023/04/25 11:59:02;;;;;;;11.73;2.35;;;;;;;;;;5039056;28;20025;-75
2023/04/25 12:01:37;;;;;;;6.13;2.88;;;;;;;;;;5020667;28;20598;-74
2023/04/25 12:04:13;;;;;;;4.22;2.63;;;;;;;;;;5015289;28;20643;-76
2023/04/25 12:06:40;;;;;;;5.13;2.60;;;;;;;;;;5016202;28;20116;-75
2023/04/25 12:09:08;;;;;;;5.65;2.60;;;;;;;;;;5020624;28;20040;-74
2023/04/25 12:11:43;;;;;;;3.70;3.00;;;;;;;;;;5020226;28;20076;-76
2023/04/25 12:14:09;;;;;;;5.20;3.22;;;;;;;;;;5021318;28;20044;-75
2023/04/25 12:16:45;;;;;;;6.95;3.10;;;;;;;;;;5022423;28;20029;-75
2023/04/25 12:19:15;;;;;;;7.78;3.20;;;;;;;;;;5018656;28;20029;-76
2023/04/25 12:21:41;;;;;;;5.95;3.10;;;;;;;;;;5023918;28;20029;-75
2023/04/25 12:24:14;;;;;;;6.15;3.53;;;;;;;;;;5023112;28;20025;-76
2023/04/25 12:26:58;;;;;;;5.00;3.20;;;;;;;;;;5021494;28;20029;-76
2023/04/25 12:29:26;;;;;;;5.03;2.58;;;;;;;;;;5019430;28;20064;-75
2023/04/25 12:31:53;;;;;;;6.25;2.75;;;;;;;;;;4998411;28;20388;-76
2023/04/25 12:34:21;;;;;;;4.13;2.95;;;;;;;;;;5002152;28;20033;-74
2023/04/25 12:36:47;;;;;;;9.35;3.00;;;;;;;;;;4998518;28;20068;-76
2023/04/25 12:39:21;;;;;;;4.75;3.50;;;;;;;;;;4995348;28;20033;-75
2023/04/25 12:41:49;;;;;;;8.73;3.78;;;;;;;;;;5001839;28;20569;-74
2023/04/25 12:44:15;;;;;;;6.65;2.75;;;;;;;;;;5004427;28;20088;-74
2023/04/25 12:46:41;;;;;;;5.93;2.85;;;;;;;;;;5002981;28;20067;-75
2023/04/25 12:49:08;;;;;;;9.20;3.35;;;;;;;;;;5002025;28;20033;-77
2023/04/25 12:51:36;;;;;;;3.88;2.60;;;;;;;;;;4998821;28;20168;-76
2023/04/25 12:54:04;;;;;;;6.75;2.50;;;;;;;;;;5004415;28;20030;-74
2023/04/25 12:56:30;;;;;;;5.72;4.50;;;;;;;;;;4999371;28;20034;-76
2023/04/25 12:58:58;;;;;;;6.30;3.55;;;;;;;;;;5001179;28;20034;-74
2023/04/25 13:01:26;;;;;;;4.00;3.17;;;;;;;;;;5004175;28;20053;-76
2023/04/25 13:03:52;;;;;;;6.38;3.08;;;;;;;;;;4999979;28;20410;-76
2023/04/25 13:06:19;;;;;;;6.35;3.28;;;;;;;;;;5004097;28;20029;-76
2023/04/25 13:08:44;;;;;;;7.07;3.30;;;;;;;;;;4995994;28;20029;-76
2023/04/25 13:11:14;;;;;;;6.72;3.45;;;;;;;;;;5004006;28;20620;-75
2023/04/25 13:13:40;;;;;;;3.53;2.75;;;;;;;;;;4996801;28;20108;-75
2023/04/25 13:16:08;;;;;;;5.35;2.92;;;;;;;;;;5002405;28;20450;-76
2023/04/25 13:18:34;;;;;;;7.53;3.65;;;;;;;;;;5000214;28;20372;-75
2023/04/25 13:21:00;;;;;;;5.57;2.90;;;;;;;;;;4998691;28;20558;-75
2023/04/25 13:23:27;;;;;;;6.50;3.20;;;;;;;;;;5004404;28;20034;-75
2023/04/25 13:25:54;;;;;;;9.02;3.90;;;;;;;;;;5002099;28;20061;-76
2023/04/25 13:28:20;;;;;;;5.45;3.15;;;;;;;;;;5003695;28;20470;-76
2023/04/25 13:30:47;;;;;;;5.57;3.00;;;;;;;;;;5005650;28;20045;-75
2023/04/25 13:33:13;;;;;;;6.50;3.47;;;;;;;;;;5003646;28;20107;-75
2023/04/25 13:35:40;;;;;;;8.32;3.25;;;;;;;;;;5005578;28;20109;-77
2023/04/25 13:38:06;;;;;;;5.97;3.55;;;;;;;;;;5007609;28;20025;-76
2023/04/25 13:40:33;;;;;;;4.05;2.97;;;;;;;;;;5002795;28;20036;-76
2023/04/25 13:42:59;;;;;;;6.38;2.88;;;;;;;;;;5004087;28;20029;-77
2023/04/25 13:45:25;;;;;;;5.10;3.00;;;;;;;;;;5001667;28;20073;-75
2023/04/25 13:47:50;;;;;;;4.20;2.70;;;;;;;;;;5000987;28;20506;-75
2023/04/25 13:50:16;;;;;;;13.50;3.78;;;;;;;;;;5003645;28;20029;-76
2023/04/25 13:52:43;;;;;;;3.78;2.70;;;;;;;;;;5003131;28;20454;-75
2023/04/25 13:55:09;;;;;;;5.03;3.25;;;;;;;;;;5004479;28;20057;-75
2023/04/25 13:57:35;;;;;;;3.40;2.72;;;;;;;;;;5002891;28;20033;-75
2023/04/25 14:00:08;;;;;;;7.88;3.22;;;;;;;;;;5008302;28;20026;-75
2023/04/25 14:02:37;;;;;;;4.35;2.47;;;;;;;;;;5006156;28;20045;-76
2023/04/25 14:05:07;;;;;;;4.22;2.28;;;;;;;;;;5012655;28;20026;-76
2023/04/25 14:07:36;;;;;;;8.40;2.45;;;;;;;;;;5007438;28;20108;-75
2023/04/25 14:10:04;;;;;;;5.53;2.85;;;;;;;;;;5008043;28;20032;-76
2023/04/25 14:12:29;;;;;;;2.42;1.80;;;;;;;;;;5006669;28;20030;-78
2023/04/25 14:14:55;;;;;;;4.05;2.10;;;;;;;;;;5009056;28;20036;-76
2023/04/25 14:17:20;;;;;;;5.03;3.10;;;;;;;;;;5007149;28;20041;-75
2023/04/25 14:19:47;;;;;;;3.25;2.70;;;;;;;;;;5017451;28;20029;-77
2023/04/25 14:22:16;;;;;;;5.55;3.05;;;;;;;;;;5016156;28;20088;-77
2023/04/25 14:24:41;;;;;;;5.97;3.00;;;;;;;;;;5012754;28;20446;-76
2023/04/25 14:27:10;;;;;;;5.13;2.38;;;;;;;;;;5012128;28;20025;-76
2023/04/25 14:29:36;;;;;;;2.70;2.03;;;;;;;;;;5008822;28;20037;-75
2023/04/25 14:32:02;;;;;;;3.80;2.63;;;;;;;;;;5036853;28;20049;-76
2023/04/25 14:34:28;;;;;;;4.97;2.13;;;;;;;;;;5028069;28;20091;-76
2023/04/25 14:36:53;;;;;;;4.78;3.10;;;;;;;;;;5047165;28;20032;-76
2023/04/25 14:39:19;;;;;;;4.38;3.47;;;;;;;;;;5046147;28;20112;-76